sensor_id;sensor_type;location;lat;lon;timestamp;P1;durP1;ratioP1;P2;durP2;ratioP2
3771;SDS011;1901;48.172;12.824;2024-01-30T00:00:31;24.42;;;11.07;;
3771;SDS011;1901;48.172;12.824;2024-01-30T00:02:56;23.90;;;12.40;;
3771;SDS011;1901;48.172;12.824;2024-01-30T00:05:21;25.10;;;11.83;;
3771;SDS011;1901;48.172;12.824;2024-01-30T00:07:46;25.17;;;13.10;;
3771;SDS011;1901;48.172;12.824;2024-01-30T00:10:12;24.90;;;12.07;;
3771;SDS011;1901;48.172;12.824;2024-01-30T00:12:37;28.47;;;13.20;;
3771;SDS011;1901;48.172;12.824;2024-01-30T00:15:02;26.97;;;12.70;;
3771;SDS011;1901;48.172;12.824;2024-01-30T00:17:29;26.77;;;14.10;;
3771;SDS011;1901;48.172;12.824;2024-01-30T00:19:54;28.50;;;12.93;;
3771;SDS011;1901;48.172;12.824;2024-01-30T00:22:19;26.30;;;13.20;;
3771;SDS011;1901;48.172;12.824;2024-01-30T00:24:45;27.33;;;13.10;;
3771;SDS011;1901;48.172;12.824;2024-01-30T00:27:10;24.13;;;11.83;;
3771;SDS011;1901;48.172;12.824;2024-01-30T00:29:35;24.63;;;11.57;;
3771;SDS011;1901;48.172;12.824;2024-01-30T00:32:01;25.97;;;12.17;;
3771;SDS011;1901;48.172;12.824;2024-01-30T00:34:26;23.97;;;12.60;;
3771;SDS011;1901;48.172;12.824;2024-01-30T00:36:51;27.00;;;12.90;;
3771;SDS011;1901;48.172;12.824;2024-01-30T00:39:25;28.73;;;13.50;;
3771;SDS011;1901;48.172;12.824;2024-01-30T00:41:50;26.97;;;13.63;;
3771;SDS011;1901;48.172;12.824;2024-01-30T00:44:18;28.25;;;12.70;;
3771;SDS011;1901;48.172;12.824;2024-01-30T00:46:44;26.10;;;13.60;;
3771;SDS011;1901;48.172;12.824;2024-01-30T00:49:10;27.60;;;12.32;;
3771;SDS011;1901;48.172;12.824;2024-01-30T00:51:35;30.15;;;12.85;;
3771;SDS011;1901;48.172;12.824;2024-01-30T00:54:00;28.20;;;14.00;;
3771;SDS011;1901;48.172;12.824;2024-01-30T00:56:28;31.30;;;13.85;;
3771;SDS011;1901;48.172;12.824;2024-01-30T00:58:53;28.37;;;12.20;;
3771;SDS011;1901;48.172;12.824;2024-01-30T01:01:19;25.17;;;12.83;;
3771;SDS011;1901;48.172;12.824;2024-01-30T01:03:44;25.23;;;12.10;;
3771;SDS011;1901;48.172;12.824;2024-01-30T01:06:09;25.13;;;11.83;;
3771;SDS011;1901;48.172;12.824;2024-01-30T01:08:34;27.15;;;11.75;;
3771;SDS011;1901;48.172;12.824;2024-01-30T01:11:00;21.67;;;11.10;;
3771;SDS011;1901;48.172;12.824;2024-01-30T01:13:25;19.20;;;10.03;;
3771;SDS011;1901;48.172;12.824;2024-01-30T01:15:50;23.30;;;9.53;;
3771;SDS011;1901;48.172;12.824;2024-01-30T01:18:15;18.10;;;9.60;;
3771;SDS011;1901;48.172;12.824;2024-01-30T01:20:40;21.17;;;9.68;;
3771;SDS011;1901;48.172;12.824;2024-01-30T01:23:06;24.73;;;10.53;;
3771;SDS011;1901;48.172;12.824;2024-01-30T01:25:31;22.13;;;10.20;;
3771;SDS011;1901;48.172;12.824;2024-01-30T01:27:56;22.70;;;10.93;;
3771;SDS011;1901;48.172;12.824;2024-01-30T01:30:22;22.85;;;10.68;;
3771;SDS011;1901;48.172;12.824;2024-01-30T01:32:48;21.42;;;11.30;;
3771;SDS011;1901;48.172;12.824;2024-01-30T01:35:19;21.10;;;10.18;;
3771;SDS011;1901;48.172;12.824;2024-01-30T01:37:45;25.48;;;9.38;;
3771;SDS011;1901;48.172;12.824;2024-01-30T01:40:10;22.00;;;10.70;;
3771;SDS011;1901;48.172;12.824;2024-01-30T01:42:35;21.47;;;10.53;;
3771;SDS011;1901;48.172;12.824;2024-01-30T01:45:00;24.90;;;12.60;;
3771;SDS011;1901;48.172;12.824;2024-01-30T01:47:26;24.87;;;10.67;;
3771;SDS011;1901;48.172;12.824;2024-01-30T01:49:51;21.37;;;10.90;;
3771;SDS011;1901;48.172;12.824;2024-01-30T01:52:16;23.65;;;11.32;;
3771;SDS011;1901;48.172;12.824;2024-01-30T01:54:42;21.90;;;11.18;;
3771;SDS011;1901;48.172;12.824;2024-01-30T01:57:07;24.17;;;11.13;;
3771;SDS011;1901;48.172;12.824;2024-01-30T01:59:32;25.20;;;12.70;;
3771;SDS011;1901;48.172;12.824;2024-01-30T02:01:57;29.37;;;12.00;;
3771;SDS011;1901;48.172;12.824;2024-01-30T02:04:23;21.63;;;11.20;;
3771;SDS011;1901;48.172;12.824;2024-01-30T02:06:48;24.50;;;12.93;;
3771;SDS011;1901;48.172;12.824;2024-01-30T02:09:13;24.47;;;11.80;;
3771;SDS011;1901;48.172;12.824;2024-01-30T02:11:38;24.37;;;12.23;;
3771;SDS011;1901;48.172;12.824;2024-01-30T02:14:04;25.70;;;11.68;;
3771;SDS011;1901;48.172;12.824;2024-01-30T02:16:29;24.00;;;12.20;;
3771;SDS011;1901;48.172;12.824;2024-01-30T02:18:55;21.70;;;10.18;;
3771;SDS011;1901;48.172;12.824;2024-01-30T02:21:20;25.03;;;12.87;;
3771;SDS011;1901;48.172;12.824;2024-01-30T02:23:46;27.70;;;12.83;;
3771;SDS011;1901;48.172;12.824;2024-01-30T02:26:11;23.35;;;12.15;;
3771;SDS011;1901;48.172;12.824;2024-01-30T02:28:37;22.48;;;10.50;;
3771;SDS011;1901;48.172;12.824;2024-01-30T02:31:02;25.13;;;12.43;;
3771;SDS011;1901;48.172;12.824;2024-01-30T02:33:27;29.40;;;11.87;;
3771;SDS011;1901;48.172;12.824;2024-01-30T02:35:53;26.17;;;11.93;;
3771;SDS011;1901;48.172;12.824;2024-01-30T02:38:18;27.00;;;13.33;;
3771;SDS011;1901;48.172;12.824;2024-01-30T02:40:43;30.43;;;13.47;;
3771;SDS011;1901;48.172;12.824;2024-01-30T02:43:09;27.42;;;13.93;;
3771;SDS011;1901;48.172;12.824;2024-01-30T02:45:34;26.73;;;12.17;;
3771;SDS011;1901;48.172;12.824;2024-01-30T02:47:59;24.93;;;11.60;;
3771;SDS011;1901;48.172;12.824;2024-01-30T02:50:24;26.97;;;13.60;;
3771;SDS011;1901;48.172;12.824;2024-01-30T02:52:49;29.63;;;12.97;;
3771;SDS011;1901;48.172;12.824;2024-01-30T02:55:14;27.92;;;13.35;;
3771;SDS011;1901;48.172;12.824;2024-01-30T02:57:42;26.33;;;11.90;;
3771;SDS011;1901;48.172;12.824;2024-01-30T03:00:07;21.37;;;10.93;;
3771;SDS011;1901;48.172;12.824;2024-01-30T03:02:34;26.30;;;10.25;;
3771;SDS011;1901;48.172;12.824;2024-01-30T03:04:59;27.27;;;11.83;;
3771;SDS011;1901;48.172;12.824;2024-01-30T03:07:24;21.83;;;11.13;;
3771;SDS011;1901;48.172;12.824;2024-01-30T03:09:50;27.63;;;12.43;;
3771;SDS011;1901;48.172;12.824;2024-01-30T03:12:15;27.93;;;13.33;;
3771;SDS011;1901;48.172;12.824;2024-01-30T03:14:40;22.63;;;11.77;;
3771;SDS011;1901;48.172;12.824;2024-01-30T03:17:05;21.33;;;10.60;;
3771;SDS011;1901;48.172;12.824;2024-01-30T03:19:30;27.80;;;11.83;;
3771;SDS011;1901;48.172;12.824;2024-01-30T03:21:55;19.27;;;11.00;;
3771;SDS011;1901;48.172;12.824;2024-01-30T03:24:21;25.10;;;10.80;;
3771;SDS011;1901;48.172;12.824;2024-01-30T03:26:46;20.60;;;9.87;;
3771;SDS011;1901;48.172;12.824;2024-01-30T03:29:11;21.00;;;10.43;;
3771;SDS011;1901;48.172;12.824;2024-01-30T03:31:36;20.70;;;10.23;;
3771;SDS011;1901;48.172;12.824;2024-01-30T03:34:02;20.03;;;8.97;;
3771;SDS011;1901;48.172;12.824;2024-01-30T03:36:27;17.07;;;9.90;;
3771;SDS011;1901;48.172;12.824;2024-01-30T03:38:52;17.65;;;9.32;;
3771;SDS011;1901;48.172;12.824;2024-01-30T03:41:18;23.03;;;10.90;;
3771;SDS011;1901;48.172;12.824;2024-01-30T03:43:43;20.97;;;10.63;;
3771;SDS011;1901;48.172;12.824;2024-01-30T03:46:08;24.10;;;11.17;;
3771;SDS011;1901;48.172;12.824;2024-01-30T03:48:33;26.48;;;11.68;;
3771;SDS011;1901;48.172;12.824;2024-01-30T03:50:59;20.50;;;10.10;;
3771;SDS011;1901;48.172;12.824;2024-01-30T03:53:24;18.53;;;10.00;;
3771;SDS011;1901;48.172;12.824;2024-01-30T03:55:49;21.90;;;10.50;;
3771;SDS011;1901;48.172;12.824;2024-01-30T03:58:14;23.98;;;10.88;;
3771;SDS011;1901;48.172;12.824;2024-01-30T04:00:40;21.47;;;10.63;;
3771;SDS011;1901;48.172;12.824;2024-01-30T04:03:06;22.75;;;10.43;;
3771;SDS011;1901;48.172;12.824;2024-01-30T04:05:31;22.75;;;9.60;;
3771;SDS011;1901;48.172;12.824;2024-01-30T04:07:56;24.13;;;11.87;;
3771;SDS011;1901;48.172;12.824;2024-01-30T04:10:21;24.60;;;12.43;;
3771;SDS011;1901;48.172;12.824;2024-01-30T04:12:46;31.00;;;13.80;;
3771;SDS011;1901;48.172;12.824;2024-01-30T04:15:12;33.60;;;15.20;;
3771;SDS011;1901;48.172;12.824;2024-01-30T04:17:38;27.67;;;13.40;;
3771;SDS011;1901;48.172;12.824;2024-01-30T04:20:04;26.60;;;13.35;;
3771;SDS011;1901;48.172;12.824;2024-01-30T04:22:30;29.70;;;15.10;;
3771;SDS011;1901;48.172;12.824;2024-01-30T04:24:55;39.03;;;19.60;;
3771;SDS011;1901;48.172;12.824;2024-01-30T04:27:20;30.13;;;14.90;;
3771;SDS011;1901;48.172;12.824;2024-01-30T04:29:45;30.07;;;13.90;;
3771;SDS011;1901;48.172;12.824;2024-01-30T04:32:11;28.63;;;13.93;;
3771;SDS011;1901;48.172;12.824;2024-01-30T04:34:36;30.07;;;14.53;;
3771;SDS011;1901;48.172;12.824;2024-01-30T04:37:02;27.80;;;13.57;;
3771;SDS011;1901;48.172;12.824;2024-01-30T04:39:27;30.40;;;12.90;;
3771;SDS011;1901;48.172;12.824;2024-01-30T04:41:52;24.10;;;12.67;;
3771;SDS011;1901;48.172;12.824;2024-01-30T04:44:17;25.70;;;12.17;;
3771;SDS011;1901;48.172;12.824;2024-01-30T04:46:42;24.67;;;11.27;;
3771;SDS011;1901;48.172;12.824;2024-01-30T04:49:08;22.57;;;11.00;;
3771;SDS011;1901;48.172;12.824;2024-01-30T04:51:33;22.50;;;10.43;;
3771;SDS011;1901;48.172;12.824;2024-01-30T04:53:58;28.63;;;11.45;;
3771;SDS011;1901;48.172;12.824;2024-01-30T04:56:23;23.35;;;12.52;;
3771;SDS011;1901;48.172;12.824;2024-01-30T04:58:49;21.23;;;10.15;;
3771;SDS011;1901;48.172;12.824;2024-01-30T05:01:15;23.03;;;10.87;;
3771;SDS011;1901;48.172;12.824;2024-01-30T05:03:40;26.13;;;11.73;;
3771;SDS011;1901;48.172;12.824;2024-01-30T05:06:05;22.47;;;11.47;;
3771;SDS011;1901;48.172;12.824;2024-01-30T05:08:30;25.95;;;13.40;;
3771;SDS011;1901;48.172;12.824;2024-01-30T05:10:56;24.45;;;12.48;;
3771;SDS011;1901;48.172;12.824;2024-01-30T05:13:21;27.57;;;12.93;;
3771;SDS011;1901;48.172;12.824;2024-01-30T05:15:46;26.70;;;12.93;;
3771;SDS011;1901;48.172;12.824;2024-01-30T05:18:11;22.43;;;11.33;;
3771;SDS011;1901;48.172;12.824;2024-01-30T05:20:37;23.03;;;10.97;;
3771;SDS011;1901;48.172;12.824;2024-01-30T05:23:02;26.37;;;12.17;;
3771;SDS011;1901;48.172;12.824;2024-01-30T05:25:27;23.80;;;11.33;;
3771;SDS011;1901;48.172;12.824;2024-01-30T05:27:52;24.63;;;9.93;;
3771;SDS011;1901;48.172;12.824;2024-01-30T05:30:17;20.53;;;10.53;;
3771;SDS011;1901;48.172;12.824;2024-01-30T05:32:43;24.43;;;11.47;;
3771;SDS011;1901;48.172;12.824;2024-01-30T05:35:08;22.50;;;11.90;;
3771;SDS011;1901;48.172;12.824;2024-01-30T05:37:33;22.17;;;11.23;;
3771;SDS011;1901;48.172;12.824;2024-01-30T05:39:58;19.57;;;9.83;;
3771;SDS011;1901;48.172;12.824;2024-01-30T05:42:23;21.70;;;10.73;;
3771;SDS011;1901;48.172;12.824;2024-01-30T05:44:49;20.50;;;10.32;;
3771;SDS011;1901;48.172;12.824;2024-01-30T05:47:14;20.40;;;11.13;;
3771;SDS011;1901;48.172;12.824;2024-01-30T05:49:40;18.08;;;9.15;;
3771;SDS011;1901;48.172;12.824;2024-01-30T05:52:05;20.40;;;9.90;;
3771;SDS011;1901;48.172;12.824;2024-01-30T05:54:31;23.97;;;11.13;;
3771;SDS011;1901;48.172;12.824;2024-01-30T05:56:56;22.53;;;9.87;;
3771;SDS011;1901;48.172;12.824;2024-01-30T05:59:21;20.08;;;9.23;;
3771;SDS011;1901;48.172;12.824;2024-01-30T06:01:47;21.50;;;9.87;;
3771;SDS011;1901;48.172;12.824;2024-01-30T06:04:12;25.10;;;9.95;;
3771;SDS011;1901;48.172;12.824;2024-01-30T06:06:37;19.33;;;9.40;;
3771;SDS011;1901;48.172;12.824;2024-01-30T06:09:03;19.67;;;9.90;;
3771;SDS011;1901;48.172;12.824;2024-01-30T06:11:28;21.60;;;10.45;;
3771;SDS011;1901;48.172;12.824;2024-01-30T06:13:53;20.07;;;9.80;;
3771;SDS011;1901;48.172;12.824;2024-01-30T06:16:18;20.60;;;10.87;;
3771;SDS011;1901;48.172;12.824;2024-01-30T06:24:39;20.52;;;10.45;;
3771;SDS011;1901;48.172;12.824;2024-01-30T06:27:04;24.83;;;11.00;;
3771;SDS011;1901;48.172;12.824;2024-01-30T06:29:29;23.23;;;11.27;;
3771;SDS011;1901;48.172;12.824;2024-01-30T06:31:55;27.73;;;12.17;;
3771;SDS011;1901;48.172;12.824;2024-01-30T06:34:21;21.27;;;10.57;;
3771;SDS011;1901;48.172;12.824;2024-01-30T06:37:00;26.45;;;12.40;;
3771;SDS011;1901;48.172;12.824;2024-01-30T06:39:28;21.52;;;9.77;;
3771;SDS011;1901;48.172;12.824;2024-01-30T06:44:51;21.63;;;10.60;;
3771;SDS011;1901;48.172;12.824;2024-01-30T06:47:43;18.83;;;11.32;;
3771;SDS011;1901;48.172;12.824;2024-01-30T06:50:08;22.23;;;11.13;;
3771;SDS011;1901;48.172;12.824;2024-01-30T07:02:09;23.45;;;11.32;;
3771;SDS011;1901;48.172;12.824;2024-01-30T07:04:35;29.58;;;12.35;;
3771;SDS011;1901;48.172;12.824;2024-01-30T07:07:02;30.40;;;15.45;;
3771;SDS011;1901;48.172;12.824;2024-01-30T07:09:27;35.57;;;17.07;;
3771;SDS011;1901;48.172;12.824;2024-01-30T07:12:05;31.58;;;12.90;;
3771;SDS011;1901;48.172;12.824;2024-01-30T07:14:31;28.95;;;13.38;;
3771;SDS011;1901;48.172;12.824;2024-01-30T07:16:59;32.13;;;14.60;;
3771;SDS011;1901;48.172;12.824;2024-01-30T07:19:24;35.22;;;15.93;;
3771;SDS011;1901;48.172;12.824;2024-01-30T07:21:49;27.53;;;13.13;;
3771;SDS011;1901;48.172;12.824;2024-01-30T07:24:14;23.87;;;13.03;;
3771;SDS011;1901;48.172;12.824;2024-01-30T07:26:40;26.83;;;13.47;;
3771;SDS011;1901;48.172;12.824;2024-01-30T07:29:06;28.83;;;13.98;;
3771;SDS011;1901;48.172;12.824;2024-01-30T07:31:31;31.60;;;14.63;;
3771;SDS011;1901;48.172;12.824;2024-01-30T07:33:56;32.97;;;15.17;;
3771;SDS011;1901;48.172;12.824;2024-01-30T07:36:21;30.23;;;15.48;;
3771;SDS011;1901;48.172;12.824;2024-01-30T07:38:46;31.40;;;15.20;;
3771;SDS011;1901;48.172;12.824;2024-01-30T07:41:12;30.90;;;16.73;;
3771;SDS011;1901;48.172;12.824;2024-01-30T07:43:38;31.60;;;16.43;;
3771;SDS011;1901;48.172;12.824;2024-01-30T07:46:03;38.67;;;18.30;;
3771;SDS011;1901;48.172;12.824;2024-01-30T07:48:29;36.00;;;17.98;;
3771;SDS011;1901;48.172;12.824;2024-01-30T07:50:54;35.43;;;16.83;;
3771;SDS011;1901;48.172;12.824;2024-01-30T07:53:22;34.47;;;16.60;;
3771;SDS011;1901;48.172;12.824;2024-01-30T07:55:47;28.50;;;14.98;;
3771;SDS011;1901;48.172;12.824;2024-01-30T07:58:12;26.37;;;14.80;;
3771;SDS011;1901;48.172;12.824;2024-01-30T08:00:38;30.33;;;14.50;;
3771;SDS011;1901;48.172;12.824;2024-01-30T08:03:03;35.30;;;15.20;;
3771;SDS011;1901;48.172;12.824;2024-01-30T08:05:29;29.83;;;14.75;;
3771;SDS011;1901;48.172;12.824;2024-01-30T08:07:54;30.43;;;14.80;;
3771;SDS011;1901;48.172;12.824;2024-01-30T08:10:19;26.73;;;12.90;;
3771;SDS011;1901;48.172;12.824;2024-01-30T08:12:45;24.23;;;13.27;;
3771;SDS011;1901;48.172;12.824;2024-01-30T08:15:11;21.50;;;12.37;;
3771;SDS011;1901;48.172;12.824;2024-01-30T08:17:37;23.67;;;12.50;;
3771;SDS011;1901;48.172;12.824;2024-01-30T08:20:02;21.23;;;11.77;;
3771;SDS011;1901;48.172;12.824;2024-01-30T08:22:29;20.83;;;12.20;;
3771;SDS011;1901;48.172;12.824;2024-01-30T08:24:54;23.17;;;12.40;;
3771;SDS011;1901;48.172;12.824;2024-01-30T08:27:19;19.10;;;11.70;;
3771;SDS011;1901;48.172;12.824;2024-01-30T08:29:45;22.33;;;12.50;;
3771;SDS011;1901;48.172;12.824;2024-01-30T08:32:10;20.83;;;12.10;;
3771;SDS011;1901;48.172;12.824;2024-01-30T08:34:35;22.88;;;13.25;;
3771;SDS011;1901;48.172;12.824;2024-01-30T08:37:01;20.97;;;11.83;;
3771;SDS011;1901;48.172;12.824;2024-01-30T08:39:26;21.17;;;13.07;;
3771;SDS011;1901;48.172;12.824;2024-01-30T08:41:51;19.73;;;12.90;;
3771;SDS011;1901;48.172;12.824;2024-01-30T08:44:16;19.83;;;12.53;;
3771;SDS011;1901;48.172;12.824;2024-01-30T08:46:42;21.85;;;12.43;;
3771;SDS011;1901;48.172;12.824;2024-01-30T08:49:10;20.02;;;12.45;;
3771;SDS011;1901;48.172;12.824;2024-01-30T08:51:35;19.20;;;11.73;;
3771;SDS011;1901;48.172;12.824;2024-01-30T08:54:10;19.00;;;11.82;;
3771;SDS011;1901;48.172;12.824;2024-01-30T08:56:35;19.80;;;12.98;;
3771;SDS011;1901;48.172;12.824;2024-01-30T09:05:01;19.58;;;11.40;;
3771;SDS011;1901;48.172;12.824;2024-01-30T09:07:26;19.30;;;11.07;;
3771;SDS011;1901;48.172;12.824;2024-01-30T09:09:51;18.60;;;11.63;;
3771;SDS011;1901;48.172;12.824;2024-01-30T09:12:16;17.17;;;11.10;;
3771;SDS011;1901;48.172;12.824;2024-01-30T09:17:42;16.90;;;11.70;;
3771;SDS011;1901;48.172;12.824;2024-01-30T09:20:15;20.95;;;12.00;;
3771;SDS011;1901;48.172;12.824;2024-01-30T09:22:50;19.83;;;12.10;;
3771;SDS011;1901;48.172;12.824;2024-01-30T09:25:16;22.25;;;12.55;;
3771;SDS011;1901;48.172;12.824;2024-01-30T09:27:41;20.33;;;12.57;;
3771;SDS011;1901;48.172;12.824;2024-01-30T09:32:36;19.90;;;13.02;;
3771;SDS011;1901;48.172;12.824;2024-01-30T09:35:09;18.90;;;11.23;;
3771;SDS011;1901;48.172;12.824;2024-01-30T09:37:34;18.42;;;10.13;;
3771;SDS011;1901;48.172;12.824;2024-01-30T09:39:59;17.08;;;10.27;;
3771;SDS011;1901;48.172;12.824;2024-01-30T09:42:34;18.60;;;11.70;;
3771;SDS011;1901;48.172;12.824;2024-01-30T09:45:01;15.20;;;10.57;;
3771;SDS011;1901;48.172;12.824;2024-01-30T09:47:26;18.40;;;11.07;;
3771;SDS011;1901;48.172;12.824;2024-01-30T09:49:51;18.47;;;11.47;;
3771;SDS011;1901;48.172;12.824;2024-01-30T09:52:19;18.45;;;11.65;;
3771;SDS011;1901;48.172;12.824;2024-01-30T09:54:45;18.38;;;10.98;;
3771;SDS011;1901;48.172;12.824;2024-01-30T09:57:11;17.37;;;11.03;;
3771;SDS011;1901;48.172;12.824;2024-01-30T09:59:36;17.48;;;10.48;;
3771;SDS011;1901;48.172;12.824;2024-01-30T10:02:01;15.47;;;10.00;;
3771;SDS011;1901;48.172;12.824;2024-01-30T10:04:29;13.30;;;9.65;;
3771;SDS011;1901;48.172;12.824;2024-01-30T10:06:54;17.17;;;11.20;;
3771;SDS011;1901;48.172;12.824;2024-01-30T10:09:19;14.43;;;10.13;;
3771;SDS011;1901;48.172;12.824;2024-01-30T10:11:44;17.53;;;10.40;;
3771;SDS011;1901;48.172;12.824;2024-01-30T10:14:09;14.57;;;9.57;;
3771;SDS011;1901;48.172;12.824;2024-01-30T10:16:35;19.90;;;11.00;;
3771;SDS011;1901;48.172;12.824;2024-01-30T10:19:00;18.73;;;10.13;;
3771;SDS011;1901;48.172;12.824;2024-01-30T10:21:25;14.05;;;8.82;;
3771;SDS011;1901;48.172;12.824;2024-01-30T10:23:50;13.07;;;7.73;;
3771;SDS011;1901;48.172;12.824;2024-01-30T10:26:16;13.90;;;7.33;;
3771;SDS011;1901;48.172;12.824;2024-01-30T10:28:42;11.38;;;7.00;;
3771;SDS011;1901;48.172;12.824;2024-01-30T10:31:07;12.00;;;6.77;;
3771;SDS011;1901;48.172;12.824;2024-01-30T10:33:43;10.93;;;6.57;;
3771;SDS011;1901;48.172;12.824;2024-01-30T10:36:09;12.68;;;6.90;;
3771;SDS011;1901;48.172;12.824;2024-01-30T10:38:35;10.98;;;7.40;;
3771;SDS011;1901;48.172;12.824;2024-01-30T10:41:01;12.30;;;7.22;;
3771;SDS011;1901;48.172;12.824;2024-01-30T10:43:30;10.55;;;6.68;;
3771;SDS011;1901;48.172;12.824;2024-01-30T10:45:57;9.55;;;6.93;;
3771;SDS011;1901;48.172;12.824;2024-01-30T10:48:24;11.45;;;7.25;;
3771;SDS011;1901;48.172;12.824;2024-01-30T10:50:52;11.15;;;7.20;;
3771;SDS011;1901;48.172;12.824;2024-01-30T10:53:19;11.18;;;6.97;;
3771;SDS011;1901;48.172;12.824;2024-01-30T10:55:44;11.27;;;7.77;;
3771;SDS011;1901;48.172;12.824;2024-01-30T10:58:11;11.18;;;7.90;;
3771;SDS011;1901;48.172;12.824;2024-01-30T11:00:36;10.52;;;6.82;;
3771;SDS011;1901;48.172;12.824;2024-01-30T11:03:02;11.43;;;7.63;;
3771;SDS011;1901;48.172;12.824;2024-01-30T11:05:35;10.57;;;7.72;;
3771;SDS011;1901;48.172;12.824;2024-01-30T11:08:10;11.57;;;6.57;;
3771;SDS011;1901;48.172;12.824;2024-01-30T11:10:44;8.20;;;5.93;;
3771;SDS011;1901;48.172;12.824;2024-01-30T11:13:15;9.52;;;6.25;;
3771;SDS011;1901;48.172;12.824;2024-01-30T11:15:41;9.75;;;6.72;;
3771;SDS011;1901;48.172;12.824;2024-01-30T11:18:06;10.13;;;6.20;;
3771;SDS011;1901;48.172;12.824;2024-01-30T11:20:31;9.77;;;6.53;;
3771;SDS011;1901;48.172;12.824;2024-01-30T11:22:57;8.32;;;6.35;;
3771;SDS011;1901;48.172;12.824;2024-01-30T11:25:23;10.40;;;6.70;;
3771;SDS011;1901;48.172;12.824;2024-01-30T11:27:52;9.70;;;6.50;;
3771;SDS011;1901;48.172;12.824;2024-01-30T11:30:24;11.13;;;6.85;;
3771;SDS011;1901;48.172;12.824;2024-01-30T11:33:06;12.80;;;6.25;;
3771;SDS011;1901;48.172;12.824;2024-01-30T11:35:32;9.70;;;6.45;;
3771;SDS011;1901;48.172;12.824;2024-01-30T11:37:58;9.48;;;6.90;;
3771;SDS011;1901;48.172;12.824;2024-01-30T11:40:23;9.02;;;6.47;;
3771;SDS011;1901;48.172;12.824;2024-01-30T11:42:51;9.80;;;6.53;;
3771;SDS011;1901;48.172;12.824;2024-01-30T11:45:17;10.60;;;7.23;;
3771;SDS011;1901;48.172;12.824;2024-01-30T11:47:42;9.50;;;7.43;;
3771;SDS011;1901;48.172;12.824;2024-01-30T11:50:07;10.18;;;6.72;;
3771;SDS011;1901;48.172;12.824;2024-01-30T11:52:35;8.50;;;5.93;;
3771;SDS011;1901;48.172;12.824;2024-01-30T11:55:01;12.07;;;7.45;;
3771;SDS011;1901;48.172;12.824;2024-01-30T11:57:27;12.48;;;8.88;;
3771;SDS011;1901;48.172;12.824;2024-01-30T11:59:53;12.57;;;8.00;;
3771;SDS011;1901;48.172;12.824;2024-01-30T12:02:18;14.45;;;8.82;;
3771;SDS011;1901;48.172;12.824;2024-01-30T12:04:43;13.40;;;8.80;;
3771;SDS011;1901;48.172;12.824;2024-01-30T12:07:08;12.25;;;8.23;;
3771;SDS011;1901;48.172;12.824;2024-01-30T12:09:34;17.17;;;8.33;;
3771;SDS011;1901;48.172;12.824;2024-01-30T12:11:59;12.80;;;8.53;;
3771;SDS011;1901;48.172;12.824;2024-01-30T12:14:24;15.20;;;8.93;;
3771;SDS011;1901;48.172;12.824;2024-01-30T12:16:50;15.48;;;9.35;;
3771;SDS011;1901;48.172;12.824;2024-01-30T12:19:24;16.73;;;9.55;;
3771;SDS011;1901;48.172;12.824;2024-01-30T12:21:56;16.67;;;8.75;;
3771;SDS011;1901;48.172;12.824;2024-01-30T12:24:23;18.73;;;8.85;;
3771;SDS011;1901;48.172;12.824;2024-01-30T12:26:49;16.10;;;8.80;;
3771;SDS011;1901;48.172;12.824;2024-01-30T12:29:14;14.73;;;8.52;;
3771;SDS011;1901;48.172;12.824;2024-01-30T12:31:41;13.82;;;9.00;;
3771;SDS011;1901;48.172;12.824;2024-01-30T12:34:07;15.07;;;8.20;;
3771;SDS011;1901;48.172;12.824;2024-01-30T12:36:32;12.57;;;7.87;;
3771;SDS011;1901;48.172;12.824;2024-01-30T12:38:57;15.70;;;9.10;;
3771;SDS011;1901;48.172;12.824;2024-01-30T12:41:23;12.80;;;8.65;;
3771;SDS011;1901;48.172;12.824;2024-01-30T12:43:56;13.43;;;8.43;;
3771;SDS011;1901;48.172;12.824;2024-01-30T12:46:24;15.98;;;9.25;;
3771;SDS011;1901;48.172;12.824;2024-01-30T12:48:50;13.80;;;8.82;;
3771;SDS011;1901;48.172;12.824;2024-01-30T12:51:18;12.80;;;8.00;;
3771;SDS011;1901;48.172;12.824;2024-01-30T12:53:43;13.60;;;8.43;;
3771;SDS011;1901;48.172;12.824;2024-01-30T12:56:09;14.67;;;7.97;;
3771;SDS011;1901;48.172;12.824;2024-01-30T12:58:34;15.00;;;8.52;;
3771;SDS011;1901;48.172;12.824;2024-01-30T13:01:17;17.95;;;8.50;;
3771;SDS011;1901;48.172;12.824;2024-01-30T13:03:50;13.52;;;7.30;;
3771;SDS011;1901;48.172;12.824;2024-01-30T13:06:15;15.15;;;7.70;;
3771;SDS011;1901;48.172;12.824;2024-01-30T13:08:41;13.27;;;7.80;;
3771;SDS011;1901;48.172;12.824;2024-01-30T13:11:06;12.80;;;7.63;;
3771;SDS011;1901;48.172;12.824;2024-01-30T13:13:31;10.82;;;6.95;;
3771;SDS011;1901;48.172;12.824;2024-01-30T13:15:57;14.35;;;6.78;;
3771;SDS011;1901;48.172;12.824;2024-01-30T13:21:33;14.10;;;8.23;;
3771;SDS011;1901;48.172;12.824;2024-01-30T13:23:58;17.07;;;9.17;;
3771;SDS011;1901;48.172;12.824;2024-01-30T13:26:23;15.67;;;8.13;;
3771;SDS011;1901;48.172;12.824;2024-01-30T13:28:49;12.73;;;7.68;;
3771;SDS011;1901;48.172;12.824;2024-01-30T13:31:14;13.32;;;8.07;;
3771;SDS011;1901;48.172;12.824;2024-01-30T13:33:40;15.30;;;8.27;;
3771;SDS011;1901;48.172;12.824;2024-01-30T13:36:06;14.63;;;8.13;;
3771;SDS011;1901;48.172;12.824;2024-01-30T13:38:31;16.65;;;9.07;;
3771;SDS011;1901;48.172;12.824;2024-01-30T13:40:56;14.65;;;8.98;;
3771;SDS011;1901;48.172;12.824;2024-01-30T13:43:22;18.93;;;9.57;;
3771;SDS011;1901;48.172;12.824;2024-01-30T13:45:50;13.43;;;8.40;;
3771;SDS011;1901;48.172;12.824;2024-01-30T13:50:43;16.58;;;9.57;;
3771;SDS011;1901;48.172;12.824;2024-01-30T13:53:08;15.00;;;8.48;;
3771;SDS011;1901;48.172;12.824;2024-01-30T13:55:34;18.60;;;10.37;;
3771;SDS011;1901;48.172;12.824;2024-01-30T13:57:59;18.35;;;10.68;;
3771;SDS011;1901;48.172;12.824;2024-01-30T14:00:26;18.65;;;10.60;;
3771;SDS011;1901;48.172;12.824;2024-01-30T14:02:51;17.85;;;10.57;;
3771;SDS011;1901;48.172;12.824;2024-01-30T14:05:19;20.30;;;9.68;;
3771;SDS011;1901;48.172;12.824;2024-01-30T14:07:47;17.42;;;9.35;;
3771;SDS011;1901;48.172;12.824;2024-01-30T14:10:12;17.37;;;10.60;;
3771;SDS011;1901;48.172;12.824;2024-01-30T14:12:38;14.97;;;9.30;;
3771;SDS011;1901;48.172;12.824;2024-01-30T14:15:03;18.63;;;10.25;;
3771;SDS011;1901;48.172;12.824;2024-01-30T14:20:42;14.73;;;9.50;;
3771;SDS011;1901;48.172;12.824;2024-01-30T14:23:45;14.80;;;8.93;;
3771;SDS011;1901;48.172;12.824;2024-01-30T14:26:19;14.13;;;8.32;;
3771;SDS011;1901;48.172;12.824;2024-01-30T14:28:55;15.23;;;8.68;;
3771;SDS011;1901;48.172;12.824;2024-01-30T14:31:53;13.43;;;8.38;;
3771;SDS011;1901;48.172;12.824;2024-01-30T14:34:27;17.20;;;8.77;;
3771;SDS011;1901;48.172;12.824;2024-01-30T14:37:30;13.55;;;9.15;;
3771;SDS011;1901;48.172;12.824;2024-01-30T14:40:15;11.93;;;8.18;;
3771;SDS011;1901;48.172;12.824;2024-01-30T14:59:35;16.00;;;9.25;;
3771;SDS011;1901;48.172;12.824;2024-01-30T16:31:46;101.80;;;48.55;;
3771;SDS011;1901;48.172;12.824;2024-01-30T16:34:11;70.88;;;37.17;;
3771;SDS011;1901;48.172;12.824;2024-01-30T16:36:36;83.50;;;44.97;;
3771;SDS011;1901;48.172;12.824;2024-01-30T16:39:01;57.07;;;29.90;;
3771;SDS011;1901;48.172;12.824;2024-01-30T16:41:28;72.25;;;37.28;;
3771;SDS011;1901;48.172;12.824;2024-01-30T16:43:56;32.60;;;15.37;;
3771;SDS011;1901;48.172;12.824;2024-01-30T16:46:28;29.70;;;16.23;;
3771;SDS011;1901;48.172;12.824;2024-01-30T16:49:15;25.00;;;12.77;;
3771;SDS011;1901;48.172;12.824;2024-01-30T17:07:46;22.02;;;12.45;;
3771;SDS011;1901;48.172;12.824;2024-01-30T17:10:38;27.30;;;12.77;;
3771;SDS011;1901;48.172;12.824;2024-01-30T17:50:46;29.15;;;14.95;;
3771;SDS011;1901;48.172;12.824;2024-01-30T17:53:17;26.77;;;13.43;;